createdAt,value
2022-10-28T00:01:58.395Z,8.55
2022-10-28T00:04:46.739Z,8.10
2022-10-28T00:07:35.381Z,9.10
2022-10-28T00:10:24.051Z,8.43
2022-10-28T00:13:13.398Z,8.48
2022-10-28T00:16:10.189Z,7.80
2022-10-28T00:18:59.571Z,8.07
2022-10-28T00:21:48.670Z,7.95
2022-10-28T00:24:36.902Z,8.15
2022-10-28T00:27:25.302Z,8.50
2022-10-28T00:30:15.087Z,8.20
2022-10-28T00:33:03.674Z,8.43
2022-10-28T00:35:51.898Z,7.60
2022-10-28T00:38:40.863Z,8.02
2022-10-28T00:41:31.761Z,8.30
2022-10-28T00:44:42.520Z,7.75
2022-10-28T00:47:40.243Z,8.30
2022-10-28T00:50:38.781Z,7.43
2022-10-28T00:53:31.042Z,8.02
2022-10-28T00:56:20.427Z,8.52
2022-10-28T00:59:12.956Z,7.70
2022-10-28T01:02:02.123Z,7.75
2022-10-28T01:04:52.204Z,7.93
2022-10-28T01:07:40.619Z,8.32
2022-10-28T01:10:48.125Z,7.75
2022-10-28T01:13:45.416Z,8.07
2022-10-28T01:16:41.559Z,7.25
2022-10-28T01:19:54.569Z,7.90
2022-10-28T01:22:54.462Z,6.93
2022-10-28T01:26:13.663Z,8.73
2022-10-28T01:29:32.480Z,7.85
2022-10-28T01:32:32.542Z,7.43
2022-10-28T01:35:26.373Z,7.63
2022-10-28T01:38:24.656Z,7.78
2022-10-28T01:41:18.939Z,8.10
2022-10-28T01:44:10.595Z,7.55
2022-10-28T01:47:04.981Z,7.60
2022-10-28T01:50:01.098Z,7.88
2022-10-28T01:52:51.551Z,7.78
2022-10-28T01:55:44.519Z,7.57
2022-10-28T01:58:34.782Z,7.55
2022-10-28T02:01:25.116Z,7.20
2022-10-28T02:04:13.507Z,8.05
2022-10-28T02:07:03.195Z,7.70
2022-10-28T02:10:10.045Z,7.80
2022-10-28T02:13:01.594Z,7.38
2022-10-28T02:15:57.844Z,7.70
2022-10-28T02:18:54.669Z,7.18
2022-10-28T02:21:52.392Z,7.70
2022-10-28T02:24:54.650Z,7.40
2022-10-28T02:27:48.391Z,7.43
2022-10-28T02:30:45.271Z,7.35
2022-10-28T02:33:38.476Z,7.47
2022-10-28T02:36:29.828Z,6.88
2022-10-28T02:39:21.965Z,7.28
2022-10-28T02:42:16.892Z,7.30
2022-10-28T02:45:11.708Z,7.38
2022-10-28T02:48:06.304Z,7.18
2022-10-28T02:50:59.115Z,7.10
2022-10-28T02:53:56.821Z,6.90
2022-10-28T02:56:51.422Z,6.93
2022-10-28T02:59:42.054Z,6.60
2022-10-28T03:02:30.832Z,7.32
2022-10-28T03:05:20.299Z,7.63
2022-10-28T03:08:08.782Z,7.22
2022-10-28T03:10:57.383Z,7.20
2022-10-28T03:13:45.281Z,7.22
2022-10-28T03:16:35.048Z,7.65
2022-10-28T03:19:23.191Z,7.15
2022-10-28T03:22:11.895Z,7.13
2022-10-28T03:25:00.284Z,6.82
2022-10-28T03:27:48.781Z,7.05
2022-10-28T03:30:36.815Z,7.07
2022-10-28T03:33:26.868Z,7.50
2022-10-28T03:36:14.924Z,7.35
2022-10-28T03:39:03.659Z,7.78
2022-10-28T03:41:52.182Z,7.03
2022-10-28T03:44:40.907Z,6.88
2022-10-28T03:47:29.166Z,7.65
2022-10-28T03:50:19.200Z,7.05
2022-10-28T03:53:07.280Z,7.03
2022-10-28T03:55:56.094Z,6.50
2022-10-28T03:58:44.322Z,6.53
2022-10-28T04:01:32.681Z,6.82
2022-10-28T04:04:21.311Z,7.00
2022-10-28T04:07:11.184Z,6.82
2022-10-28T04:09:59.319Z,7.25
2022-10-28T04:12:47.768Z,7.35
2022-10-28T04:15:35.968Z,6.78
2022-10-28T04:18:24.304Z,6.82
2022-10-28T04:21:12.334Z,6.65
2022-10-28T04:24:02.206Z,6.95
2022-10-28T04:26:50.352Z,7.25
2022-10-28T04:29:38.795Z,6.75
2022-10-28T04:32:26.902Z,6.60
2022-10-28T04:35:15.850Z,7.00
2022-10-28T04:38:04.415Z,6.60
2022-10-28T04:40:54.422Z,7.05
2022-10-28T04:43:43.150Z,6.45
2022-10-28T04:46:31.574Z,6.50
2022-10-28T04:49:19.891Z,6.15
2022-10-28T04:52:10.797Z,7.00
2022-10-28T04:55:01.977Z,6.32
2022-10-28T04:58:02.336Z,6.15
2022-10-28T05:00:52.492Z,6.53
2022-10-28T05:03:40.920Z,6.57
2022-10-28T05:06:29.096Z,6.53
2022-10-28T05:09:17.749Z,7.07
2022-10-28T05:12:06.911Z,6.72
2022-10-28T05:14:56.738Z,6.53
2022-10-28T05:17:46.327Z,5.93
2022-10-28T05:20:35.166Z,6.72
2022-10-28T05:23:25.900Z,6.20
2022-10-28T05:26:18.239Z,5.88
2022-10-28T05:29:06.851Z,6.85
2022-10-28T05:31:56.654Z,6.13
2022-10-28T05:34:44.810Z,6.65
2022-10-28T05:37:33.369Z,6.15
2022-10-28T05:40:21.347Z,6.55
2022-10-28T05:43:11.051Z,6.40
2022-10-28T05:45:59.425Z,5.80
2022-10-28T05:48:49.639Z,6.72
2022-10-28T05:51:37.392Z,6.95
2022-10-28T05:54:26.049Z,6.38
2022-10-28T05:57:14.483Z,6.45
2022-10-28T06:00:03.666Z,6.38
2022-10-28T06:03:06.932Z,5.97
2022-10-28T06:05:58.476Z,6.38
2022-10-28T06:08:46.546Z,6.15
2022-10-28T06:11:34.816Z,6.18
2022-10-28T06:14:24.658Z,6.45
2022-10-28T06:17:13.131Z,6.68
2022-10-28T06:20:01.235Z,6.80
2022-10-28T06:22:52.756Z,6.10
2022-10-28T06:25:40.890Z,6.22
2022-10-28T06:28:30.733Z,6.50
2022-10-28T06:31:18.849Z,6.28
2022-10-28T06:34:08.991Z,5.93
2022-10-28T06:36:57.187Z,6.00
2022-10-28T06:39:49.862Z,6.10
2022-10-28T06:42:37.748Z,5.60
2022-10-28T06:45:26.915Z,5.85
2022-10-28T06:48:16.874Z,6.00
2022-10-28T06:51:05.975Z,5.97
2022-10-28T06:53:54.564Z,6.07
2022-10-28T06:56:45.666Z,6.40
2022-10-28T06:59:33.637Z,5.67
2022-10-28T07:02:23.576Z,6.25
2022-10-28T07:05:12.231Z,6.05
2022-10-28T07:08:00.723Z,6.05
2022-10-28T07:10:56.421Z,5.82
2022-10-28T07:13:48.884Z,6.00
2022-10-28T07:16:37.730Z,5.80
2022-10-28T07:19:26.393Z,5.88
2022-10-28T07:22:14.933Z,5.50
2022-10-28T07:25:03.226Z,6.38
2022-10-28T07:27:51.942Z,5.50
2022-10-28T07:30:41.463Z,5.97
2022-10-28T07:33:29.921Z,6.13
2022-10-28T07:36:18.468Z,6.00
2022-10-28T07:39:07.788Z,5.53
2022-10-28T07:41:56.499Z,5.82
2022-10-28T07:44:44.920Z,6.10
2022-10-28T07:47:34.893Z,5.40
2022-10-28T07:50:23.007Z,5.90
2022-10-28T07:53:11.806Z,5.60
2022-10-28T07:56:01.504Z,5.60
2022-10-28T07:58:50.438Z,5.80
2022-10-28T08:01:38.959Z,5.80
2022-10-28T08:04:31.052Z,5.80
2022-10-28T08:07:20.483Z,5.47
2022-10-28T08:10:09.918Z,5.88
2022-10-28T08:12:58.980Z,5.60
2022-10-28T08:15:53.444Z,5.47
2022-10-28T08:18:42.140Z,6.07
2022-10-28T08:21:32.145Z,5.97
2022-10-28T08:24:20.882Z,5.53
2022-10-28T08:27:09.500Z,5.55
2022-10-28T08:29:57.898Z,5.18
2022-10-28T08:32:46.569Z,5.75
2022-10-28T08:35:35.547Z,5.18
2022-10-28T08:38:25.294Z,6.25
2022-10-28T08:41:36.074Z,5.40
2022-10-28T08:45:03.913Z,5.70
2022-10-28T08:48:05.088Z,5.50
2022-10-28T08:50:57.946Z,5.53
2022-10-28T08:53:52.845Z,5.38
2022-10-28T08:56:46.203Z,4.90
2022-10-28T08:59:37.094Z,5.25
2022-10-28T09:02:30.255Z,5.97
2022-10-28T09:05:22.774Z,6.05
2022-10-28T09:08:19.927Z,5.80
2022-10-28T09:11:34.452Z,5.63
2022-10-28T09:14:40.614Z,5.35
2022-10-28T09:17:40.204Z,5.35
2022-10-28T09:20:39.510Z,5.40
2022-10-28T09:23:32.412Z,5.43
2022-10-28T09:26:29.492Z,5.43
2022-10-28T09:29:39.299Z,5.35
2022-10-28T09:32:39.101Z,5.22
2022-10-28T09:35:32.073Z,5.32
2022-10-28T09:38:28.897Z,5.20
2022-10-28T09:41:20.881Z,5.10
2022-10-28T09:44:16.991Z,4.97
2022-10-28T09:47:13.758Z,5.22
2022-10-28T09:50:07.653Z,5.30
2022-10-28T09:53:02.879Z,5.00
2022-10-28T09:55:52.113Z,5.68
2022-10-28T09:58:46.249Z,5.13
2022-10-28T10:01:38.216Z,5.00
2022-10-28T10:04:29.175Z,5.22
2022-10-28T10:07:26.159Z,4.82
2022-10-28T10:10:18.397Z,5.72
2022-10-28T10:13:09.655Z,5.00
2022-10-28T10:16:04.000Z,5.20
2022-10-28T10:18:57.298Z,5.13
2022-10-28T10:21:47.483Z,5.05
2022-10-28T10:24:37.095Z,5.35
2022-10-28T10:27:27.906Z,5.32
2022-10-28T10:30:19.839Z,5.32
2022-10-28T10:33:18.561Z,4.85
2022-10-28T10:36:17.078Z,5.15
2022-10-28T10:39:05.694Z,4.97
2022-10-28T10:41:55.435Z,4.72
2022-10-28T10:44:45.128Z,5.30
2022-10-28T10:47:33.142Z,5.07
2022-10-28T10:50:24.702Z,5.00
2022-10-28T10:53:24.984Z,5.38
2022-10-28T10:56:15.774Z,4.93
2022-10-28T10:59:06.931Z,5.40
2022-10-28T11:04:52.388Z,4.95
2022-10-28T11:07:47.838Z,5.50
2022-10-28T11:10:37.311Z,4.50
2022-10-28T11:13:27.800Z,5.00
2022-10-28T11:16:21.153Z,5.53
2022-10-28T11:19:21.605Z,4.93
2022-10-28T11:22:26.121Z,4.82
2022-10-28T11:25:29.989Z,4.68
2022-10-28T11:28:39.904Z,5.15
2022-10-28T11:31:41.666Z,4.85
2022-10-28T11:34:45.852Z,5.10
2022-10-28T11:37:52.055Z,5.38
2022-10-28T11:40:49.010Z,4.85
2022-10-28T11:43:54.358Z,4.82
2022-10-28T11:46:52.279Z,4.22
2022-10-28T11:50:03.461Z,4.72
2022-10-28T11:56:04.444Z,4.55
2022-10-28T11:59:07.002Z,4.65
2022-10-28T12:02:05.935Z,4.95
2022-10-28T12:05:05.946Z,4.40
2022-10-28T12:08:08.589Z,5.20
2022-10-28T12:11:16.911Z,5.15
2022-10-28T12:14:17.719Z,4.57
2022-10-28T12:20:05.186Z,4.40
2022-10-28T12:22:56.796Z,4.75
2022-10-28T12:25:49.092Z,4.70
2022-10-28T12:28:43.093Z,4.53
2022-10-28T12:31:41.085Z,4.63
2022-10-28T12:34:34.785Z,4.88
2022-10-28T12:37:25.874Z,4.75
2022-10-28T12:40:20.862Z,4.15
2022-10-28T12:43:17.561Z,4.70
2022-10-28T12:46:06.712Z,4.93
2022-10-28T12:49:00.097Z,4.45
2022-10-28T12:51:48.371Z,4.70
2022-10-28T12:54:52.688Z,5.00
2022-10-28T12:57:46.148Z,4.70
2022-10-28T13:00:38.855Z,4.68
2022-10-28T13:03:27.384Z,4.32
2022-10-28T13:06:54.979Z,5.28
2022-10-28T13:09:52.908Z,5.45
2022-10-28T13:13:08.089Z,5.55
2022-10-28T13:16:11.872Z,5.03
2022-10-28T13:19:38.598Z,5.60
2022-10-28T13:22:47.607Z,4.93
2022-10-28T13:25:48.503Z,5.30
2022-10-28T13:28:47.503Z,5.10
2022-10-28T13:31:41.722Z,5.32
2022-10-28T13:34:36.022Z,4.88
2022-10-28T13:37:26.332Z,4.95
2022-10-28T13:40:44.586Z,5.07
2022-10-28T13:44:21.176Z,5.63
2022-10-28T13:47:30.305Z,5.05
2022-10-28T13:50:42.396Z,4.78
2022-10-28T13:53:40.897Z,4.50
2022-10-28T13:56:41.736Z,4.80
2022-10-28T13:59:35.474Z,5.13
2022-10-28T14:02:35.650Z,4.88
2022-10-28T14:05:27.421Z,5.50
2022-10-28T14:08:23.259Z,5.70
2022-10-28T14:11:15.055Z,5.53
2022-10-28T14:14:05.343Z,5.55
2022-10-28T14:16:54.046Z,5.55
2022-10-28T14:19:50.752Z,6.18
2022-10-28T14:22:38.765Z,6.10
2022-10-28T14:26:00.738Z,5.95
2022-10-28T14:28:55.829Z,5.63
2022-10-28T14:31:45.390Z,6.07
2022-10-28T14:34:45.075Z,5.70
2022-10-28T14:38:06.385Z,6.38
2022-10-28T14:41:06.044Z,5.68
2022-10-28T14:44:06.884Z,6.18
2022-10-28T14:47:09.841Z,6.03
2022-10-28T14:50:03.071Z,6.20
2022-10-28T14:52:52.865Z,6.78
2022-10-28T14:55:41.824Z,6.70
2022-10-28T14:58:33.414Z,6.22
2022-10-28T15:01:35.143Z,7.38
2022-10-28T15:04:23.419Z,7.50
2022-10-28T15:07:17.430Z,7.60
2022-10-28T15:10:16.210Z,7.82
2022-10-28T15:13:04.709Z,8.00
2022-10-28T15:15:54.548Z,8.02
2022-10-28T15:18:48.781Z,7.78
2022-10-28T15:21:37.378Z,7.90
2022-10-28T15:24:27.001Z,8.18
2022-10-28T15:27:15.343Z,7.60
2022-10-28T15:30:05.673Z,8.40
2022-10-28T15:32:55.750Z,7.70
2022-10-28T15:35:44.322Z,8.10
2022-10-28T15:38:39.432Z,7.05
2022-10-28T15:41:52.490Z,8.60
2022-10-28T15:44:41.542Z,8.23
2022-10-28T15:47:33.474Z,8.85
2022-10-28T15:50:31.212Z,8.85
2022-10-28T15:53:40.014Z,8.23
2022-10-28T15:56:28.959Z,8.23
2022-10-28T15:59:22.476Z,8.88
2022-10-28T16:02:41.112Z,8.50
2022-10-28T16:06:00.170Z,7.68
2022-10-28T16:08:48.849Z,7.78
2022-10-28T16:11:42.560Z,7.57
2022-10-28T16:14:37.718Z,7.63
2022-10-28T16:17:28.276Z,8.20
2022-10-28T16:20:21.912Z,7.80
2022-10-28T16:23:16.902Z,8.07
2022-10-28T16:26:05.434Z,8.15
2022-10-28T16:28:54.155Z,7.32
2022-10-28T16:31:43.564Z,7.50
2022-10-28T16:34:31.956Z,7.72
2022-10-28T16:37:23.951Z,6.63
2022-10-28T16:40:37.555Z,7.22
2022-10-28T16:43:23.904Z,7.63
2022-10-28T16:46:14.117Z,7.68
2022-10-28T16:49:04.226Z,6.72
2022-10-28T16:51:52.337Z,6.40
2022-10-28T16:54:40.922Z,7.15
2022-10-28T16:57:29.307Z,7.32
2022-10-28T17:00:18.244Z,7.38
2022-10-28T17:03:07.121Z,7.05
2022-10-28T17:05:56.723Z,7.38
2022-10-28T17:11:53.467Z,7.20
2022-10-28T17:14:41.697Z,7.28
2022-10-28T17:17:30.328Z,6.80
2022-10-28T17:20:18.577Z,6.72
2022-10-28T17:23:09.268Z,8.02
2022-10-28T17:25:58.820Z,6.78
2022-10-28T17:28:52.183Z,6.47
2022-10-28T17:31:40.784Z,6.63
2022-10-28T17:34:29.072Z,7.50
2022-10-28T17:37:17.765Z,7.00
2022-10-28T17:40:09.231Z,7.03
2022-10-28T17:42:59.529Z,7.75
2022-10-28T17:45:48.028Z,6.40
2022-10-28T17:48:36.557Z,7.10
2022-10-28T17:51:25.289Z,6.45
2022-10-28T17:54:13.538Z,6.60
2022-10-28T17:57:03.081Z,6.75
2022-10-28T17:59:51.477Z,6.78
2022-10-28T18:02:40.833Z,6.68
2022-10-28T18:05:29.170Z,6.53
2022-10-28T18:08:18.059Z,6.72
2022-10-28T18:11:07.818Z,6.68
2022-10-28T18:13:57.781Z,6.45
2022-10-28T18:16:46.842Z,6.28
2022-10-28T18:19:35.341Z,6.82
2022-10-28T18:25:12.209Z,6.70
2022-10-28T18:28:00.666Z,6.10
2022-10-28T18:30:50.291Z,6.72
2022-10-28T18:33:39.116Z,5.85
2022-10-28T18:36:29.122Z,6.82
2022-10-28T18:39:17.461Z,6.80
2022-10-28T18:42:05.928Z,6.68
2022-10-28T18:44:58.569Z,6.50
2022-10-28T18:47:48.264Z,6.55
2022-10-28T18:50:36.887Z,6.05
2022-10-28T18:53:25.743Z,6.45
2022-10-28T18:56:16.680Z,6.03
2022-10-28T18:59:07.663Z,6.55
2022-10-28T19:01:55.873Z,6.03
2022-10-28T19:04:46.093Z,6.10
2022-10-28T19:07:34.489Z,5.93
2022-10-28T19:10:22.854Z,6.40
2022-10-28T19:13:11.021Z,6.75
2022-10-28T19:15:59.650Z,5.93
2022-10-28T19:18:49.222Z,5.60
2022-10-28T19:21:39.361Z,6.18
2022-10-28T19:24:27.870Z,6.20
2022-10-28T19:27:16.377Z,5.80
2022-10-28T19:30:07.786Z,6.20
2022-10-28T19:32:59.203Z,5.80
2022-10-28T19:35:47.424Z,5.97
2022-10-28T19:38:38.867Z,5.90
2022-10-28T19:41:29.253Z,5.60
2022-10-28T19:44:17.641Z,5.88
2022-10-28T19:47:06.300Z,6.22
2022-10-28T19:49:54.802Z,6.10
2022-10-28T19:52:44.928Z,5.80
2022-10-28T19:55:34.664Z,5.82
2022-10-28T19:58:23.417Z,6.22
2022-10-28T20:01:12.591Z,5.75
2022-10-28T20:04:01.705Z,5.47
2022-10-28T20:06:50.111Z,5.90
2022-10-28T20:09:38.359Z,5.72
2022-10-28T20:12:28.388Z,6.07
2022-10-28T20:15:16.700Z,6.10
2022-10-28T20:18:05.445Z,5.57
2022-10-28T20:20:53.997Z,5.90
2022-10-28T20:23:42.782Z,6.40
2022-10-28T20:26:33.200Z,5.57
2022-10-28T20:29:23.255Z,6.00
2022-10-28T20:32:11.862Z,5.50
2022-10-28T20:35:02.366Z,5.18
2022-10-28T20:37:54.907Z,5.60
2022-10-28T20:40:43.574Z,5.43
2022-10-28T20:43:32.167Z,6.10
2022-10-28T20:46:22.571Z,5.40
2022-10-28T20:49:10.702Z,5.50
2022-10-28T20:51:59.608Z,5.97
2022-10-28T20:54:47.885Z,5.43
2022-10-28T20:57:36.522Z,5.90
2022-10-28T21:00:24.641Z,5.43
2022-10-28T21:03:14.703Z,5.45
2022-10-28T21:06:04.676Z,5.72
2022-10-28T21:08:53.804Z,5.35
2022-10-28T21:11:42.109Z,5.55
2022-10-28T21:14:31.053Z,5.25
2022-10-28T21:17:19.177Z,5.60
2022-10-28T21:20:11.029Z,5.30
2022-10-28T21:23:01.069Z,4.72
2022-10-28T21:25:54.329Z,5.45
2022-10-28T21:28:43.171Z,5.25
2022-10-28T21:31:31.849Z,5.47
2022-10-28T21:34:21.370Z,5.35
2022-10-28T21:37:11.274Z,5.40
2022-10-28T21:40:01.082Z,5.45
2022-10-28T21:42:52.518Z,5.15
2022-10-28T21:45:40.953Z,5.38
2022-10-28T21:48:30.168Z,5.30
2022-10-28T21:51:19.009Z,5.05
2022-10-28T21:54:08.848Z,5.25
2022-10-28T21:56:57.305Z,5.00
2022-10-28T21:59:49.644Z,5.38
2022-10-28T22:02:38.282Z,5.13
2022-10-28T22:05:26.806Z,5.00
2022-10-28T22:08:15.386Z,5.63
2022-10-28T22:11:08.070Z,5.32
2022-10-28T22:13:58.775Z,4.97
2022-10-28T22:16:46.820Z,4.63
2022-10-28T22:19:35.225Z,4.95
2022-10-28T22:22:23.572Z,4.65
2022-10-28T22:25:12.595Z,5.03
2022-10-28T22:28:02.329Z,4.75
2022-10-28T22:30:50.765Z,5.30
2022-10-28T22:33:39.320Z,4.72
2022-10-28T22:36:29.483Z,5.10
2022-10-28T22:39:17.994Z,5.35
2022-10-28T22:42:07.551Z,5.03
2022-10-28T22:44:57.746Z,5.43
2022-10-28T22:47:46.233Z,5.30
2022-10-28T22:50:34.687Z,4.70
2022-10-28T22:53:23.641Z,4.90
2022-10-28T22:56:16.083Z,4.75
2022-10-28T22:59:04.621Z,5.18
2022-10-28T23:01:54.985Z,5.05
2022-10-28T23:04:43.718Z,5.28
2022-10-28T23:07:32.299Z,5.03
2022-10-28T23:10:20.812Z,5.07
2022-10-28T23:13:13.020Z,4.97
2022-10-28T23:16:04.991Z,4.85
2022-10-28T23:18:54.669Z,5.10
2022-10-28T23:21:42.931Z,4.97
2022-10-28T23:24:31.607Z,4.70
2022-10-28T23:27:19.687Z,4.80
2022-10-28T23:30:08.840Z,5.20
2022-10-28T23:32:59.035Z,4.72
2022-10-28T23:35:55.200Z,4.75
2022-10-28T23:38:44.209Z,4.45
2022-10-28T23:41:32.423Z,4.65
2022-10-28T23:44:21.675Z,4.45
2022-10-28T23:47:10.317Z,4.65
2022-10-28T23:49:58.988Z,4.80
2022-10-28T23:52:48.928Z,4.78
2022-10-28T23:55:37.174Z,4.57
2022-10-28T23:58:25.554Z,4.05
